Data Viewer
| City | State | Eastern Time | Source | Temp | DewPt | RH | BP | 5 Min Precip | Wind Speed | Wind Dir | 5 Min Wind Max | 5 Min Wind Max Dir |
|---|---|---|---|---|---|---|---|---|---|---|---|---|
| New York LGA | NY | 2026-05-04 17:15 | ASOS | 66 | 45 | 46 | 29.80 | 20 | SSE | |||
| New York LGA | NY | 2026-05-05 08:35 | ASOS | 66 | 48 | 52 | 29.85 | 13 | SW | |||
| New York LGA | NY | 2026-05-05 11:15 | ASOS | 73 | 52 | 47 | 29.84 | 10 | SSE | |||
| New York LGA | NY | 2026-05-05 10:51 | ASOS | 73 | 50 | 44 | 29.85 | 12 | SW | |||
| New York LGA | NY | 2026-05-05 10:35 | ASOS | 72 | 50 | 47 | 29.85 | 12 | SSW | |||
| New York LGA | NY | 2026-05-05 10:30 | ASOS | 72 | 50 | 47 | 29.86 | 12 | S | |||
| New York LGA | NY | 2026-05-05 10:25 | ASOS | 72 | 50 | 47 | 29.86 | 10 | SSW | |||
| New York LGA | NY | 2026-05-05 10:20 | ASOS | 72 | 50 | 47 | 29.86 | 10 | SSW | |||
| New York LGA | NY | 2026-05-05 10:15 | ASOS | 72 | 50 | 47 | 29.86 | 12 | SW | |||
| New York LGA | NY | 2026-05-05 09:51 | ASOS | 70 | 50 | 49 | 29.85 | 10 | SSW | |||
| New York LGA | NY | 2026-05-05 09:35 | ASOS | 70 | 50 | 49 | 29.85 | 14 | SSW | |||
| New York LGA | NY | 2026-05-05 09:30 | ASOS | 70 | 50 | 49 | 29.85 | 9 | SSW | |||
| New York LGA | NY | 2026-05-05 09:25 | ASOS | 70 | 48 | 46 | 29.85 | 12 | SW | |||
| New York LGA | NY | 2026-05-05 09:20 | ASOS | 70 | 48 | 46 | 29.85 | 14 | SSW | |||
| New York LGA | NY | 2026-05-05 09:15 | ASOS | 70 | 48 | 46 | 29.85 | 12 | SW | |||
| New York LGA | NY | 2026-05-05 08:51 | ASOS | 68 | 49 | 50 | 29.84 | 13 | SW | |||
| New York LGA | NY | 2026-05-05 08:30 | ASOS | 66 | 48 | 52 | 29.85 | 13 | SW | |||
| New York LGA | NY | 2026-05-05 11:25 | ASOS | 75 | 52 | 44 | 29.84 | 12 | SSE | |||
| New York LGA | NY | 2026-05-05 07:20 | ASOS | 63 | 48 | 59 | 29.85 | 7 | SSW | |||
| New York LGA | NY | 2026-05-05 06:20 | ASOS | 57 | 50 | 77 | 29.85 | 9 | S | |||
| New York LGA | NY | 2026-05-05 06:25 | ASOS | 57 | 50 | 77 | 29.85 | 8 | S | |||
| New York LGA | NY | 2026-05-05 06:30 | ASOS | 57 | 50 | 77 | 29.85 | 9 | S | |||
| New York LGA | NY | 2026-05-05 06:35 | ASOS | 59 | 48 | 67 | 29.85 | 6 | S | |||
| New York LGA | NY | 2026-05-05 06:51 | ASOS | 61 | 49 | 65 | 29.85 | 8 | SW | |||
| New York LGA | NY | 2026-05-05 07:15 | ASOS | 63 | 48 | 59 | 29.85 | 8 | SSW | |||
| New York LGA | NY | 2026-05-05 07:25 | ASOS | 63 | 48 | 59 | 29.85 | 6 | SSW | |||
| New York LGA | NY | 2026-05-05 08:25 | ASOS | 66 | 48 | 52 | 29.85 | 10 | SW | |||
| New York LGA | NY | 2026-05-05 07:30 | ASOS | 63 | 48 | 59 | 29.85 | 9 | SSW | |||
| New York LGA | NY | 2026-05-05 07:35 | ASOS | 63 | 48 | 59 | 29.85 | 7 | SSW | |||
| New York LGA | NY | 2026-05-05 07:40 | ASOS | 64 | 48 | 56 | 29.85 | 6 | SSW | |||
| New York LGA | NY | 2026-05-05 07:51 | ASOS | 64 | 49 | 58 | 29.84 | 7 | SSW | |||
| New York LGA | NY | 2026-05-05 08:15 | ASOS | 66 | 48 | 52 | 29.84 | 12 | SW | |||
| New York LGA | NY | 2026-05-05 08:20 | ASOS | 66 | 48 | 52 | 29.84 | 10 | SW | |||
| New York LGA | NY | 2026-05-05 11:20 | ASOS | 73 | 52 | 47 | 29.84 | 9 | SSW | |||
| New York LGA | NY | 2026-05-05 11:30 | ASOS | 73 | 52 | 47 | 29.84 | 10 | SSE | |||
| New York LGA | NY | 2026-05-05 06:10 | ASOS | 57 | 50 | 77 | 29.84 | 7 | SSW | |||
| New York LGA | NY | 2026-05-05 14:35 | ASOS | 73 | 54 | 50 | 29.80 | 20 | SSE | |||
| New York LGA | NY | 2026-05-05 16:35 | ASOS | 73 | 52 | 47 | 29.75 | 14 | SSE | |||
| New York LGA | NY | 2026-05-05 16:30 | ASOS | 73 | 52 | 47 | 29.75 | 15 | S | |||
| New York LGA | NY | 2026-05-05 16:25 | ASOS | 73 | 52 | 47 | 29.75 | 16 | SSE | |||
| New York LGA | NY | 2026-05-05 16:20 | ASOS | 73 | 54 | 50 | 29.75 | 16 | SSE | |||
| New York LGA | NY | 2026-05-05 16:15 | ASOS | 73 | 54 | 50 | 29.75 | 17 | SSE | |||
| New York LGA | NY | 2026-05-05 16:10 | ASOS | 73 | 54 | 50 | 29.75 | 17 | SSE | |||
| New York LGA | NY | 2026-05-05 15:51 | ASOS | 75 | 53 | 46 | 29.75 | 17 | SSE | |||
| New York LGA | NY | 2026-05-05 15:35 | ASOS | 75 | 54 | 47 | 29.76 | 17 | SSE | |||
| New York LGA | NY | 2026-05-05 15:30 | ASOS | 75 | 54 | 47 | 29.77 | 15 | S | |||
| New York LGA | NY | 2026-05-05 15:25 | ASOS | 75 | 54 | 47 | 29.77 | 17 | SSE | |||
| New York LGA | NY | 2026-05-05 15:20 | ASOS | 75 | 54 | 47 | 29.77 | 16 | S | |||
| New York LGA | NY | 2026-05-05 15:15 | ASOS | 75 | 54 | 47 | 29.78 | 17 | SSE | |||
| New York LGA | NY | 2026-05-05 14:51 | ASOS | 73 | 53 | 50 | 29.79 | 18 | SSE | |||
| New York LGA | NY | 2026-05-05 14:40 | ASOS | 73 | 54 | 50 | 29.80 | 18 | S | |||
| New York LGA | NY | 2026-05-05 14:30 | ASOS | 72 | 54 | 53 | 29.80 | 17 | SSE | |||
| New York LGA | NY | 2026-05-05 11:35 | ASOS | 73 | 52 | 47 | 29.83 | 8 | SSE | |||
| New York LGA | NY | 2026-05-05 13:15 | ASOS | 75 | 54 | 47 | 29.81 | 13 | S | |||
| New York LGA | NY | 2026-05-05 11:51 | ASOS | 74 | 53 | 48 | 29.84 | 15 | SSE | |||
| New York LGA | NY | 2026-05-05 12:15 | ASOS | 75 | 52 | 44 | 29.83 | 14 | S | |||
| New York LGA | NY | 2026-05-05 12:20 | ASOS | 75 | 52 | 44 | 29.83 | 12 | S | |||
| New York LGA | NY | 2026-05-05 12:25 | ASOS | 75 | 52 | 44 | 29.82 | 10 | S | |||
| New York LGA | NY | 2026-05-05 12:35 | ASOS | 75 | 52 | 44 | 29.82 | 13 | S | |||
| New York LGA | NY | 2026-05-05 12:51 | ASOS | 76 | 52 | 43 | 29.81 | 12 | S | |||
| New York LGA | NY | 2026-05-05 13:20 | ASOS | 75 | 54 | 47 | 29.81 | 12 | SSE | |||
| New York LGA | NY | 2026-05-05 14:25 | ASOS | 72 | 54 | 53 | 29.80 | 17 | S | |||
| New York LGA | NY | 2026-05-05 13:25 | ASOS | 75 | 54 | 47 | 29.81 | 16 | SSE | |||
| New York LGA | NY | 2026-05-05 13:30 | ASOS | 73 | 54 | 50 | 29.81 | 14 | S | |||
| New York LGA | NY | 2026-05-05 13:35 | ASOS | 73 | 54 | 50 | 29.81 | 17 | S | |||
| New York LGA | NY | 2026-05-05 13:51 | ASOS | 73 | 53 | 50 | 29.80 | 14 | SSE | |||
| New York LGA | NY | 2026-05-05 14:15 | ASOS | 73 | 54 | 50 | 29.80 | 13 | SSE | |||
| New York LGA | NY | 2026-05-05 14:20 | ASOS | 73 | 54 | 50 | 29.80 | 16 | SSE | |||
| New York LGA | NY | 2026-05-05 06:15 | ASOS | 57 | 50 | 77 | 29.85 | 7 | SSW | |||
| New York LGA | NY | 2026-05-05 06:05 | ASOS | 57 | 50 | 77 | 29.84 | 7 | S | |||
| New York LGA | NY | 2026-05-04 17:20 | ASOS | 66 | 46 | 49 | 29.80 | 18 | SSE | |||
| New York LGA | NY | 2026-05-04 20:51 | ASOS | 64 | 46 | 52 | 29.83 | 13 | S | |||
| New York LGA | NY | 2026-05-04 23:30 | ASOS | 63 | 44 | 52 | 29.84 | 9 | S | |||
| New York LGA | NY | 2026-05-04 23:25 | ASOS | 63 | 44 | 52 | 29.84 | 9 | S | |||
| New York LGA | NY | 2026-05-04 23:20 | ASOS | 63 | 44 | 52 | 29.84 | 9 | S | |||
| New York LGA | NY | 2026-05-04 23:15 | ASOS | 61 | 44 | 55 | 29.84 | 9 | S | |||
| New York LGA | NY | 2026-05-04 22:51 | ASOS | 62 | 44 | 52 | 29.85 | 9 | S | |||
| New York LGA | NY | 2026-05-04 22:25 | ASOS | 64 | 43 | 45 | 29.85 | 8 | S | |||
| New York LGA | NY | 2026-05-04 22:20 | ASOS | 64 | 43 | 45 | 29.85 | 8 | S | |||
| New York LGA | NY | 2026-05-04 22:15 | ASOS | 64 | 43 | 45 | 29.85 | 8 | S | |||
| New York LGA | NY | 2026-05-04 21:51 | ASOS | 65 | 42 | 43 | 29.85 | 10 | S | |||
| New York LGA | NY | 2026-05-04 21:35 | ASOS | 64 | 43 | 45 | 29.85 | 13 | SSW | |||
| New York LGA | NY | 2026-05-04 21:30 | ASOS | 64 | 44 | 49 | 29.84 | 9 | SSW | |||
| New York LGA | NY | 2026-05-04 21:25 | ASOS | 64 | 44 | 49 | 29.84 | 10 | SSW | |||
| New York LGA | NY | 2026-05-04 21:20 | ASOS | 64 | 44 | 49 | 29.84 | 9 | SSW | |||
| New York LGA | NY | 2026-05-04 21:15 | ASOS | 63 | 44 | 52 | 29.84 | 13 | S | |||
| New York LGA | NY | 2026-05-04 20:30 | ASOS | 64 | 46 | 52 | 29.82 | 13 | S | |||
| New York LGA | NY | 2026-05-04 23:51 | ASOS | 62 | 45 | 53 | 29.84 | 8 | S | |||
| New York LGA | NY | 2026-05-04 18:51 | ASOS | 63 | 47 | 56 | 29.79 | 12 | S | |||
| New York LGA | NY | 2026-05-04 17:25 | ASOS | 64 | 46 | 52 | 29.80 | 20 | SSE | |||
| New York LGA | NY | 2026-05-04 17:35 | ASOS | 64 | 46 | 52 | 29.80 | 18 | SSE | |||
| New York LGA | NY | 2026-05-04 17:51 | ASOS | 65 | 46 | 50 | 29.80 | 18 | SSE | |||
| New York LGA | NY | 2026-05-04 18:15 | ASOS | 63 | 46 | 55 | 29.79 | 15 | SSE | |||
| New York LGA | NY | 2026-05-04 18:20 | ASOS | 64 | 46 | 52 | 29.79 | 17 | SSE | |||
| New York LGA | NY | 2026-05-04 18:25 | ASOS | 63 | 46 | 55 | 29.79 | 18 | SSE | |||
| New York LGA | NY | 2026-05-04 19:20 | ASOS | 63 | 46 | 55 | 29.80 | 10 | S | |||
| New York LGA | NY | 2026-05-04 20:25 | ASOS | 63 | 46 | 55 | 29.82 | 12 | S | |||
| New York LGA | NY | 2026-05-04 19:25 | ASOS | 63 | 46 | 55 | 29.80 | 10 | S | |||
| New York LGA | NY | 2026-05-04 19:30 | ASOS | 63 | 46 | 55 | 29.80 | 7 | S | |||
| New York LGA | NY | 2026-05-04 19:35 | ASOS | 63 | 46 | 55 | 29.80 | 9 | S | |||
| New York LGA | NY | 2026-05-04 19:51 | ASOS | 63 | 47 | 56 | 29.81 | 9 | S | |||
| New York LGA | NY | 2026-05-04 20:15 | ASOS | 63 | 46 | 55 | 29.82 | 10 | S | |||
| New York LGA | NY | 2026-05-04 20:20 | ASOS | 63 | 46 | 55 | 29.82 | 13 | S | |||
| New York LGA | NY | 2026-05-04 23:35 | ASOS | 63 | 44 | 52 | 29.84 | 8 | S | |||
| New York LGA | NY | 2026-05-05 00:15 | ASOS | 63 | 44 | 52 | 29.84 | 9 | S | |||
| New York LGA | NY | 2026-05-05 06:00 | ASOS | 57 | 50 | 77 | 29.83 | 8 | S | |||
| New York LGA | NY | 2026-05-05 04:25 | ASOS | 55 | 48 | 77 | 29.82 | 6 | S | |||
| New York LGA | NY | 2026-05-05 03:30 | ASOS | 55 | 50 | 82 | 29.82 | 5 | SSE | |||
| New York LGA | NY | 2026-05-05 03:35 | ASOS | 55 | 50 | 82 | 29.82 | 5 | SSE | |||
| New York LGA | NY | 2026-05-05 03:40 | ASOS | 55 | 50 | 82 | 29.82 | 7 | SSE | |||
| New York LGA | NY | 2026-05-05 03:51 | ASOS | 56 | 50 | 80 | 29.82 | 5 | S | |||
| New York LGA | NY | 2026-05-05 04:15 | ASOS | 55 | 48 | 77 | 29.82 | 5 | S | |||
| New York LGA | NY | 2026-05-05 04:20 | ASOS | 55 | 48 | 77 | 29.82 | 6 | S | |||
| New York LGA | NY | 2026-05-05 04:30 | ASOS | 55 | 48 | 77 | 29.83 | 7 | SSE | |||
| New York LGA | NY | 2026-05-05 03:20 | ASOS | 55 | 50 | 82 | 29.82 | 6 | SSE | |||
| New York LGA | NY | 2026-05-05 04:35 | ASOS | 55 | 48 | 77 | 29.83 | 8 | SSE | |||
| New York LGA | NY | 2026-05-05 04:51 | ASOS | 56 | 49 | 77 | 29.82 | 7 | SSE | |||
| New York LGA | NY | 2026-05-05 05:20 | ASOS | 57 | 48 | 72 | 29.82 | 7 | S | |||
| New York LGA | NY | 2026-05-05 05:25 | ASOS | 57 | 48 | 72 | 29.83 | 6 | S | |||
| New York LGA | NY | 2026-05-05 05:30 | ASOS | 55 | 48 | 77 | 29.82 | 6 | S | |||
| New York LGA | NY | 2026-05-05 05:35 | ASOS | 55 | 48 | 77 | 29.82 | 7 | S | |||
| New York LGA | NY | 2026-05-05 03:25 | ASOS | 55 | 50 | 82 | 29.82 | 5 | S | |||
| New York LGA | NY | 2026-05-05 03:15 | ASOS | 55 | 50 | 82 | 29.82 | 3 | S | |||
| New York LGA | NY | 2026-05-05 00:20 | ASOS | 63 | 44 | 52 | 29.84 | 10 | S | |||
| New York LGA | NY | 2026-05-05 01:25 | ASOS | 57 | 48 | 72 | 29.83 | 8 | S | |||
| New York LGA | NY | 2026-05-05 00:25 | ASOS | 61 | 44 | 55 | 29.84 | 9 | S | |||
| New York LGA | NY | 2026-05-05 00:30 | ASOS | 61 | 44 | 55 | 29.84 | 10 | S | |||
| New York LGA | NY | 2026-05-05 00:35 | ASOS | 61 | 44 | 55 | 29.84 | 12 | S | |||
| New York LGA | NY | 2026-05-05 00:51 | ASOS | 60 | 46 | 60 | 29.84 | 8 | S | |||
| New York LGA | NY | 2026-05-05 01:15 | ASOS | 59 | 46 | 63 | 29.83 | 9 | S | |||
| New York LGA | NY | 2026-05-05 01:20 | ASOS | 59 | 46 | 63 | 29.83 | 8 | S | |||
| New York LGA | NY | 2026-05-05 01:30 | ASOS | 57 | 48 | 72 | 29.83 | 8 | S | |||
| New York LGA | NY | 2026-05-05 02:51 | ASOS | 56 | 50 | 80 | 29.82 | 9 | S | |||
| New York LGA | NY | 2026-05-05 01:51 | ASOS | 58 | 48 | 70 | 29.83 | 8 | S | |||
| New York LGA | NY | 2026-05-05 02:15 | ASOS | 55 | 48 | 77 | 29.83 | 9 | S | |||
| New York LGA | NY | 2026-05-05 02:20 | ASOS | 55 | 50 | 82 | 29.82 | 8 | S | |||
| New York LGA | NY | 2026-05-05 02:25 | ASOS | 55 | 50 | 82 | 29.83 | 8 | S | |||
| New York LGA | NY | 2026-05-05 02:30 | ASOS | 55 | 50 | 82 | 29.82 | 8 | S | |||
| New York LGA | NY | 2026-05-05 02:35 | ASOS | 55 | 50 | 82 | 29.82 | 10 | S | |||
| New York LGA | NY | 2026-05-05 16:51 | ASOS | 73 | 52 | 48 | 29.75 | 16 | SSE |
data collection created in 0.021527051925659 (queried in 0.005203) rendered in: 0.00025105476379395

